sensor_id;sensor_type;location;lat;lon;timestamp;temperature;humidity
69208;SHT31;70114;47.690;8.898;2023-08-06T00:00:37;15.78;76.87
69208;SHT31;70114;47.690;8.898;2023-08-06T00:03:03;15.72;77.00
69208;SHT31;70114;47.690;8.898;2023-08-06T00:05:28;15.58;76.85
69208;SHT31;70114;47.690;8.898;2023-08-06T00:07:54;15.61;77.17
69208;SHT31;70114;47.690;8.898;2023-08-06T00:10:19;15.70;76.65
69208;SHT31;70114;47.690;8.898;2023-08-06T00:12:44;15.64;76.74
69208;SHT31;70114;47.690;8.898;2023-08-06T00:15:10;15.70;76.56
69208;SHT31;70114;47.690;8.898;2023-08-06T00:17:36;15.71;77.04
69208;SHT31;70114;47.690;8.898;2023-08-06T00:20:03;15.72;76.73
69208;SHT31;70114;47.690;8.898;2023-08-06T00:22:35;15.78;76.91
69208;SHT31;70114;47.690;8.898;2023-08-06T00:25:06;15.78;76.90
69208;SHT31;70114;47.690;8.898;2023-08-06T00:27:42;15.85;76.68
69208;SHT31;70114;47.690;8.898;2023-08-06T00:30:08;15.85;76.40
69208;SHT31;70114;47.690;8.898;2023-08-06T00:32:34;15.82;76.39
69208;SHT31;70114;47.690;8.898;2023-08-06T00:35:02;15.79;76.74
69208;SHT31;70114;47.690;8.898;2023-08-06T00:37:37;15.70;76.78
69208;SHT31;70114;47.690;8.898;2023-08-06T00:40:07;15.68;77.03
69208;SHT31;70114;47.690;8.898;2023-08-06T00:42:36;15.57;77.16
69208;SHT31;70114;47.690;8.898;2023-08-06T00:45:02;15.70;76.91
69208;SHT31;70114;47.690;8.898;2023-08-06T00:47:31;15.55;77.12
69208;SHT31;70114;47.690;8.898;2023-08-06T00:50:07;15.60;76.92
69208;SHT31;70114;47.690;8.898;2023-08-06T00:52:34;15.68;76.76
69208;SHT31;70114;47.690;8.898;2023-08-06T00:55:01;15.57;77.28
69208;SHT31;70114;47.690;8.898;2023-08-06T00:57:27;15.62;76.81
69208;SHT31;70114;47.690;8.898;2023-08-06T01:00:05;15.55;76.83
69208;SHT31;70114;47.690;8.898;2023-08-06T01:02:34;15.55;76.65
69208;SHT31;70114;47.690;8.898;2023-08-06T01:05:00;15.51;76.46
69208;SHT31;70114;47.690;8.898;2023-08-06T01:13:17;15.44;75.78
69208;SHT31;70114;47.690;8.898;2023-08-06T01:15:49;15.39;75.80
69208;SHT31;70114;47.690;8.898;2023-08-06T01:18:17;15.46;75.49
69208;SHT31;70114;47.690;8.898;2023-08-06T01:20:51;15.43;75.79
69208;SHT31;70114;47.690;8.898;2023-08-06T01:23:29;15.53;75.35
69208;SHT31;70114;47.690;8.898;2023-08-06T01:26:37;15.51;75.03
69208;SHT31;70114;47.690;8.898;2023-08-06T01:32:00;15.36;74.89
69208;SHT31;70114;47.690;8.898;2023-08-06T01:37:49;15.29;75.47
69208;SHT31;70114;47.690;8.898;2023-08-06T01:40:21;15.29;76.03
69208;SHT31;70114;47.690;8.898;2023-08-06T01:42:53;15.29;76.16
69208;SHT31;70114;47.690;8.898;2023-08-06T01:45:27;15.26;76.54
69208;SHT31;70114;47.690;8.898;2023-08-06T01:50:59;15.02;78.82
69208;SHT31;70114;47.690;8.898;2023-08-06T01:56:40;14.98;79.65
69208;SHT31;70114;47.690;8.898;2023-08-06T01:59:33;15.02;79.67
69208;SHT31;70114;47.690;8.898;2023-08-06T02:02:30;15.03;79.74
69208;SHT31;70114;47.690;8.898;2023-08-06T02:05:02;14.89;80.21
69208;SHT31;70114;47.690;8.898;2023-08-06T02:07:41;14.88;80.15
69208;SHT31;70114;47.690;8.898;2023-08-06T02:10:21;14.91;79.82
69208;SHT31;70114;47.690;8.898;2023-08-06T02:12:54;14.92;80.05
69208;SHT31;70114;47.690;8.898;2023-08-06T02:15:32;14.84;79.75
69208;SHT31;70114;47.690;8.898;2023-08-06T02:21:09;14.86;78.78
69208;SHT31;70114;47.690;8.898;2023-08-06T02:23:54;14.79;78.84
69208;SHT31;70114;47.690;8.898;2023-08-06T02:26:27;14.75;78.89
69208;SHT31;70114;47.690;8.898;2023-08-06T02:29:09;14.75;78.85
69208;SHT31;70114;47.690;8.898;2023-08-06T02:35:23;14.64;78.54
69208;SHT31;70114;47.690;8.898;2023-08-06T02:37:57;14.78;78.33
69208;SHT31;70114;47.690;8.898;2023-08-06T02:43:27;14.71;77.80
69208;SHT31;70114;47.690;8.898;2023-08-06T02:46:30;14.71;77.88
69208;SHT31;70114;47.690;8.898;2023-08-06T02:49:08;14.68;77.54
69208;SHT31;70114;47.690;8.898;2023-08-06T02:51:47;14.72;77.40
69208;SHT31;70114;47.690;8.898;2023-08-06T02:54:21;14.64;76.85
69208;SHT31;70114;47.690;8.898;2023-08-06T02:57:15;14.57;76.92
69208;SHT31;70114;47.690;8.898;2023-08-06T03:00:02;14.55;77.00
69208;SHT31;70114;47.690;8.898;2023-08-06T03:02:37;14.55;76.37
69208;SHT31;70114;47.690;8.898;2023-08-06T03:05:19;14.51;76.44
69208;SHT31;70114;47.690;8.898;2023-08-06T03:07:59;14.48;76.35
69208;SHT31;70114;47.690;8.898;2023-08-06T03:10:31;14.60;76.25
69208;SHT31;70114;47.690;8.898;2023-08-06T03:12:59;14.51;76.05
69208;SHT31;70114;47.690;8.898;2023-08-06T03:15:25;14.51;75.93
69208;SHT31;70114;47.690;8.898;2023-08-06T03:17:55;14.54;75.68
69208;SHT31;70114;47.690;8.898;2023-08-06T03:20:25;14.57;75.87
69208;SHT31;70114;47.690;8.898;2023-08-06T03:22:53;14.48;75.55
69208;SHT31;70114;47.690;8.898;2023-08-06T03:25:22;14.54;75.58
69208;SHT31;70114;47.690;8.898;2023-08-06T03:27:47;14.52;76.02
69208;SHT31;70114;47.690;8.898;2023-08-06T03:30:13;14.61;75.85
69208;SHT31;70114;47.690;8.898;2023-08-06T03:32:39;14.63;75.68
69208;SHT31;70114;47.690;8.898;2023-08-06T03:35:07;14.67;75.48
69208;SHT31;70114;47.690;8.898;2023-08-06T03:37:33;14.64;75.42
69208;SHT31;70114;47.690;8.898;2023-08-06T03:39:59;14.71;75.19
69208;SHT31;70114;47.690;8.898;2023-08-06T03:42:24;14.76;75.19
69208;SHT31;70114;47.690;8.898;2023-08-06T03:44:50;14.76;75.38
69208;SHT31;70114;47.690;8.898;2023-08-06T03:47:15;14.78;75.14
69208;SHT31;70114;47.690;8.898;2023-08-06T03:49:41;14.81;75.16
69208;SHT31;70114;47.690;8.898;2023-08-06T03:52:07;14.75;74.92
69208;SHT31;70114;47.690;8.898;2023-08-06T03:54:32;14.81;74.84
69208;SHT31;70114;47.690;8.898;2023-08-06T03:56:58;14.69;75.34
69208;SHT31;70114;47.690;8.898;2023-08-06T03:59:24;14.78;75.13
69208;SHT31;70114;47.690;8.898;2023-08-06T04:01:49;14.85;75.23
69208;SHT31;70114;47.690;8.898;2023-08-06T04:04:15;14.82;75.06
69208;SHT31;70114;47.690;8.898;2023-08-06T04:06:40;14.85;74.99
69208;SHT31;70114;47.690;8.898;2023-08-06T04:09:06;14.81;74.85
69208;SHT31;70114;47.690;8.898;2023-08-06T04:11:31;14.71;76.49
69208;SHT31;70114;47.690;8.898;2023-08-06T04:13:56;14.81;75.35
69208;SHT31;70114;47.690;8.898;2023-08-06T04:16:22;14.67;76.23
69208;SHT31;70114;47.690;8.898;2023-08-06T04:18:56;14.72;76.21
69208;SHT31;70114;47.690;8.898;2023-08-06T04:21:23;14.76;77.02
69208;SHT31;70114;47.690;8.898;2023-08-06T04:23:49;14.74;77.20
69208;SHT31;70114;47.690;8.898;2023-08-06T04:26:22;14.74;77.95
69208;SHT31;70114;47.690;8.898;2023-08-06T04:28:56;14.88;77.83
69208;SHT31;70114;47.690;8.898;2023-08-06T04:31:22;14.69;79.06
69208;SHT31;70114;47.690;8.898;2023-08-06T04:33:48;14.57;78.93
69208;SHT31;70114;47.690;8.898;2023-08-06T04:36:13;14.51;79.87
69208;SHT31;70114;47.690;8.898;2023-08-06T04:38:39;14.27;79.84
69208;SHT31;70114;47.690;8.898;2023-08-06T04:41:06;14.14;80.79
69208;SHT31;70114;47.690;8.898;2023-08-06T04:43:32;14.00;81.08
69208;SHT31;70114;47.690;8.898;2023-08-06T04:45:57;13.93;81.13
69208;SHT31;70114;47.690;8.898;2023-08-06T04:48:23;14.02;81.31
69208;SHT31;70114;47.690;8.898;2023-08-06T04:50:49;13.86;81.42
69208;SHT31;70114;47.690;8.898;2023-08-06T04:53:16;13.85;81.15
69208;SHT31;70114;47.690;8.898;2023-08-06T04:55:42;13.80;80.79
69208;SHT31;70114;47.690;8.898;2023-08-06T04:58:09;13.73;81.81
69208;SHT31;70114;47.690;8.898;2023-08-06T05:00:35;13.76;80.70
69208;SHT31;70114;47.690;8.898;2023-08-06T05:03:00;13.73;80.69
69208;SHT31;70114;47.690;8.898;2023-08-06T05:05:28;13.65;80.44
69208;SHT31;70114;47.690;8.898;2023-08-06T05:07:54;13.65;79.96
69208;SHT31;70114;47.690;8.898;2023-08-06T05:10:20;13.59;80.03
69208;SHT31;70114;47.690;8.898;2023-08-06T05:12:46;13.40;80.89
69208;SHT31;70114;47.690;8.898;2023-08-06T05:15:11;13.42;80.55
69208;SHT31;70114;47.690;8.898;2023-08-06T05:17:38;13.32;81.09
69208;SHT31;70114;47.690;8.898;2023-08-06T05:20:07;13.21;81.35
69208;SHT31;70114;47.690;8.898;2023-08-06T05:22:33;13.28;81.65
69208;SHT31;70114;47.690;8.898;2023-08-06T05:24:58;13.25;81.79
69208;SHT31;70114;47.690;8.898;2023-08-06T05:27:24;13.28;81.96
69208;SHT31;70114;47.690;8.898;2023-08-06T05:29:49;13.28;82.36
69208;SHT31;70114;47.690;8.898;2023-08-06T05:32:15;13.14;82.54
69208;SHT31;70114;47.690;8.898;2023-08-06T05:34:40;13.03;82.98
69208;SHT31;70114;47.690;8.898;2023-08-06T05:37:06;13.13;83.10
69208;SHT31;70114;47.690;8.898;2023-08-06T05:39:32;13.06;83.66
69208;SHT31;70114;47.690;8.898;2023-08-06T05:41:57;13.07;84.17
69208;SHT31;70114;47.690;8.898;2023-08-06T05:44:23;13.04;83.90
69208;SHT31;70114;47.690;8.898;2023-08-06T05:46:49;13.00;83.93
69208;SHT31;70114;47.690;8.898;2023-08-06T05:49:15;13.10;83.38
69208;SHT31;70114;47.690;8.898;2023-08-06T05:51:41;13.02;83.50
69208;SHT31;70114;47.690;8.898;2023-08-06T05:54:06;13.06;83.60
69208;SHT31;70114;47.690;8.898;2023-08-06T05:56:32;13.14;83.50
69208;SHT31;70114;47.690;8.898;2023-08-06T05:58:57;13.11;83.63
69208;SHT31;70114;47.690;8.898;2023-08-06T06:01:23;13.03;83.82
69208;SHT31;70114;47.690;8.898;2023-08-06T06:03:48;13.08;83.62
69208;SHT31;70114;47.690;8.898;2023-08-06T06:06:14;13.04;83.97
69208;SHT31;70114;47.690;8.898;2023-08-06T06:08:39;13.10;83.87
69208;SHT31;70114;47.690;8.898;2023-08-06T06:11:04;13.08;83.10
69208;SHT31;70114;47.690;8.898;2023-08-06T06:13:30;13.11;83.65
69208;SHT31;70114;47.690;8.898;2023-08-06T06:15:55;12.99;83.06
69208;SHT31;70114;47.690;8.898;2023-08-06T06:18:21;13.15;83.29
69208;SHT31;70114;47.690;8.898;2023-08-06T06:20:47;13.13;83.41
69208;SHT31;70114;47.690;8.898;2023-08-06T06:23:12;12.94;83.01
69208;SHT31;70114;47.690;8.898;2023-08-06T06:25:46;12.94;83.59
69208;SHT31;70114;47.690;8.898;2023-08-06T06:28:12;12.96;83.12
69208;SHT31;70114;47.690;8.898;2023-08-06T06:30:37;13.00;83.14
69208;SHT31;70114;47.690;8.898;2023-08-06T06:33:02;13.06;83.24
69208;SHT31;70114;47.690;8.898;2023-08-06T06:35:28;13.08;82.91
69208;SHT31;70114;47.690;8.898;2023-08-06T06:37:53;13.14;83.01
69208;SHT31;70114;47.690;8.898;2023-08-06T06:40:19;13.20;82.63
69208;SHT31;70114;47.690;8.898;2023-08-06T06:42:44;13.25;82.70
69208;SHT31;70114;47.690;8.898;2023-08-06T06:45:10;13.28;82.39
69208;SHT31;70114;47.690;8.898;2023-08-06T06:47:35;13.21;81.51
69208;SHT31;70114;47.690;8.898;2023-08-06T06:50:01;13.21;82.25
69208;SHT31;70114;47.690;8.898;2023-08-06T06:52:26;13.15;82.10
69208;SHT31;70114;47.690;8.898;2023-08-06T06:54:51;13.20;82.24
69208;SHT31;70114;47.690;8.898;2023-08-06T06:57:17;13.03;82.87
69208;SHT31;70114;47.690;8.898;2023-08-06T06:59:42;13.18;83.12
69208;SHT31;70114;47.690;8.898;2023-08-06T07:02:08;13.28;82.46
69208;SHT31;70114;47.690;8.898;2023-08-06T07:04:33;13.28;82.64
69208;SHT31;70114;47.690;8.898;2023-08-06T07:06:58;13.24;82.50
69208;SHT31;70114;47.690;8.898;2023-08-06T07:09:24;13.44;82.39
69208;SHT31;70114;47.690;8.898;2023-08-06T07:11:50;13.35;82.03
69208;SHT31;70114;47.690;8.898;2023-08-06T07:14:15;13.45;81.73
69208;SHT31;70114;47.690;8.898;2023-08-06T07:16:40;13.45;82.18
69208;SHT31;70114;47.690;8.898;2023-08-06T07:19:06;13.40;81.64
69208;SHT31;70114;47.690;8.898;2023-08-06T07:21:31;13.25;81.95
69208;SHT31;70114;47.690;8.898;2023-08-06T07:23:57;13.30;82.27
69208;SHT31;70114;47.690;8.898;2023-08-06T07:26:24;13.30;82.44
69208;SHT31;70114;47.690;8.898;2023-08-06T07:28:50;13.23;81.95
69208;SHT31;70114;47.690;8.898;2023-08-06T07:31:15;13.34;81.45
69208;SHT31;70114;47.690;8.898;2023-08-06T07:33:41;13.40;81.89
69208;SHT31;70114;47.690;8.898;2023-08-06T07:36:14;13.51;82.01
69208;SHT31;70114;47.690;8.898;2023-08-06T07:38:39;13.51;81.48
69208;SHT31;70114;47.690;8.898;2023-08-06T07:41:05;13.50;81.33
69208;SHT31;70114;47.690;8.898;2023-08-06T07:43:31;13.45;82.18
69208;SHT31;70114;47.690;8.898;2023-08-06T07:46:00;13.47;82.25
69208;SHT31;70114;47.690;8.898;2023-08-06T07:48:26;13.58;81.87
69208;SHT31;70114;47.690;8.898;2023-08-06T07:50:55;13.68;82.33
69208;SHT31;70114;47.690;8.898;2023-08-06T07:53:25;13.68;81.87
69208;SHT31;70114;47.690;8.898;2023-08-06T07:55:55;13.75;81.64
69208;SHT31;70114;47.690;8.898;2023-08-06T07:58:21;13.87;82.01
69208;SHT31;70114;47.690;8.898;2023-08-06T08:00:47;13.85;81.44
69208;SHT31;70114;47.690;8.898;2023-08-06T08:03:14;13.69;81.43
69208;SHT31;70114;47.690;8.898;2023-08-06T08:05:40;13.68;82.22
69208;SHT31;70114;47.690;8.898;2023-08-06T08:08:07;13.65;83.06
69208;SHT31;70114;47.690;8.898;2023-08-06T08:10:34;13.59;83.03
69208;SHT31;70114;47.690;8.898;2023-08-06T08:13:01;13.54;82.78
69208;SHT31;70114;47.690;8.898;2023-08-06T08:15:28;13.55;82.15
69208;SHT31;70114;47.690;8.898;2023-08-06T08:17:53;13.55;82.67
69208;SHT31;70114;47.690;8.898;2023-08-06T08:20:19;13.42;82.82
69208;SHT31;70114;47.690;8.898;2023-08-06T08:22:44;13.51;82.82
69208;SHT31;70114;47.690;8.898;2023-08-06T08:25:10;13.48;82.45
69208;SHT31;70114;47.690;8.898;2023-08-06T08:27:35;13.47;82.88
69208;SHT31;70114;47.690;8.898;2023-08-06T08:30:00;13.41;83.02
69208;SHT31;70114;47.690;8.898;2023-08-06T08:32:26;13.48;83.69
69208;SHT31;70114;47.690;8.898;2023-08-06T08:34:51;13.30;83.88
69208;SHT31;70114;47.690;8.898;2023-08-06T08:37:17;13.37;84.04
69208;SHT31;70114;47.690;8.898;2023-08-06T08:39:42;13.32;83.77
69208;SHT31;70114;47.690;8.898;2023-08-06T08:42:09;13.30;83.78
69208;SHT31;70114;47.690;8.898;2023-08-06T08:44:35;13.38;84.26
69208;SHT31;70114;47.690;8.898;2023-08-06T08:47:06;13.40;84.20
69208;SHT31;70114;47.690;8.898;2023-08-06T08:49:31;13.35;84.29
69208;SHT31;70114;47.690;8.898;2023-08-06T08:51:59;13.50;84.23
69208;SHT31;70114;47.690;8.898;2023-08-06T08:54:27;13.38;84.28
69208;SHT31;70114;47.690;8.898;2023-08-06T08:56:53;13.44;84.47
69208;SHT31;70114;47.690;8.898;2023-08-06T08:59:20;13.52;84.72
69208;SHT31;70114;47.690;8.898;2023-08-06T09:01:48;13.57;84.64
69208;SHT31;70114;47.690;8.898;2023-08-06T09:04:17;13.44;84.57
69208;SHT31;70114;47.690;8.898;2023-08-06T09:06:46;13.45;84.23
69208;SHT31;70114;47.690;8.898;2023-08-06T09:09:15;13.50;84.65
69208;SHT31;70114;47.690;8.898;2023-08-06T09:11:44;13.44;84.87
69208;SHT31;70114;47.690;8.898;2023-08-06T09:14:11;13.28;84.40
69208;SHT31;70114;47.690;8.898;2023-08-06T09:16:37;13.10;84.86
69208;SHT31;70114;47.690;8.898;2023-08-06T09:19:10;13.02;85.37
69208;SHT31;70114;47.690;8.898;2023-08-06T09:21:40;13.06;85.77
69208;SHT31;70114;47.690;8.898;2023-08-06T09:24:12;13.15;86.45
69208;SHT31;70114;47.690;8.898;2023-08-06T09:26:39;13.17;85.72
69208;SHT31;70114;47.690;8.898;2023-08-06T09:29:06;13.32;86.56
69208;SHT31;70114;47.690;8.898;2023-08-06T09:34:14;13.38;84.97
69208;SHT31;70114;47.690;8.898;2023-08-06T09:36:42;13.42;84.98
69208;SHT31;70114;47.690;8.898;2023-08-06T09:39:15;13.32;85.17
69208;SHT31;70114;47.690;8.898;2023-08-06T09:41:42;13.41;84.88
69208;SHT31;70114;47.690;8.898;2023-08-06T09:44:18;13.34;85.49
69208;SHT31;70114;47.690;8.898;2023-08-06T09:46:50;13.50;84.99
69208;SHT31;70114;47.690;8.898;2023-08-06T09:49:18;13.41;84.68
69208;SHT31;70114;47.690;8.898;2023-08-06T09:51:44;13.51;84.62
69208;SHT31;70114;47.690;8.898;2023-08-06T09:54:12;13.52;85.18
69208;SHT31;70114;47.690;8.898;2023-08-06T09:56:40;13.59;84.28
69208;SHT31;70114;47.690;8.898;2023-08-06T09:59:06;13.52;85.58
69208;SHT31;70114;47.690;8.898;2023-08-06T10:01:34;13.47;84.79
69208;SHT31;70114;47.690;8.898;2023-08-06T10:04:04;13.50;83.97
69208;SHT31;70114;47.690;8.898;2023-08-06T10:06:34;13.42;84.82
69208;SHT31;70114;47.690;8.898;2023-08-06T10:09:05;13.32;85.30
69208;SHT31;70114;47.690;8.898;2023-08-06T10:11:31;13.38;85.02
69208;SHT31;70114;47.690;8.898;2023-08-06T10:14:21;13.44;85.03
69208;SHT31;70114;47.690;8.898;2023-08-06T10:16:48;13.42;85.41
69208;SHT31;70114;47.690;8.898;2023-08-06T10:19:15;13.42;85.07
69208;SHT31;70114;47.690;8.898;2023-08-06T10:21:42;13.42;84.84
69208;SHT31;70114;47.690;8.898;2023-08-06T10:24:27;13.50;85.06
69208;SHT31;70114;47.690;8.898;2023-08-06T10:26:56;13.35;84.44
69208;SHT31;70114;47.690;8.898;2023-08-06T10:29:36;13.34;84.71
69208;SHT31;70114;47.690;8.898;2023-08-06T10:32:03;13.44;84.59
69208;SHT31;70114;47.690;8.898;2023-08-06T10:34:58;13.58;85.66
69208;SHT31;70114;47.690;8.898;2023-08-06T10:37:37;13.61;84.78
69208;SHT31;70114;47.690;8.898;2023-08-06T10:40:03;13.55;84.78
69208;SHT31;70114;47.690;8.898;2023-08-06T10:42:31;13.82;85.09
69208;SHT31;70114;47.690;8.898;2023-08-06T10:45:13;13.61;84.09
69208;SHT31;70114;47.690;8.898;2023-08-06T10:47:40;13.58;84.26
69208;SHT31;70114;47.690;8.898;2023-08-06T10:50:07;13.57;83.92
69208;SHT31;70114;47.690;8.898;2023-08-06T10:52:34;13.61;84.19
69208;SHT31;70114;47.690;8.898;2023-08-06T10:55:00;13.51;83.45
69208;SHT31;70114;47.690;8.898;2023-08-06T10:57:26;13.65;82.98
69208;SHT31;70114;47.690;8.898;2023-08-06T10:59:52;13.73;83.39
69208;SHT31;70114;47.690;8.898;2023-08-06T11:02:17;13.82;84.23
69208;SHT31;70114;47.690;8.898;2023-08-06T11:04:43;13.89;82.46
69208;SHT31;70114;47.690;8.898;2023-08-06T11:07:09;13.86;82.96
69208;SHT31;70114;47.690;8.898;2023-08-06T11:09:35;14.02;82.04
69208;SHT31;70114;47.690;8.898;2023-08-06T11:12:01;13.96;82.07
69208;SHT31;70114;47.690;8.898;2023-08-06T11:14:26;14.06;82.13
69208;SHT31;70114;47.690;8.898;2023-08-06T11:16:52;13.97;82.67
69208;SHT31;70114;47.690;8.898;2023-08-06T11:19:17;14.06;82.16
69208;SHT31;70114;47.690;8.898;2023-08-06T11:21:43;13.95;82.13
69208;SHT31;70114;47.690;8.898;2023-08-06T11:24:12;13.95;81.99
69208;SHT31;70114;47.690;8.898;2023-08-06T11:26:37;13.89;81.89
69208;SHT31;70114;47.690;8.898;2023-08-06T11:29:05;13.93;81.21
69208;SHT31;70114;47.690;8.898;2023-08-06T11:31:30;14.03;81.37
69208;SHT31;70114;47.690;8.898;2023-08-06T11:33:56;14.17;81.85
69208;SHT31;70114;47.690;8.898;2023-08-06T11:36:32;14.28;80.72
69208;SHT31;70114;47.690;8.898;2023-08-06T11:39:01;14.33;80.39
69208;SHT31;70114;47.690;8.898;2023-08-06T11:41:31;14.34;80.35
69208;SHT31;70114;47.690;8.898;2023-08-06T11:43:58;14.41;79.38
69208;SHT31;70114;47.690;8.898;2023-08-06T11:46:24;14.40;79.54
69208;SHT31;70114;47.690;8.898;2023-08-06T11:48:58;14.63;79.17
69208;SHT31;70114;47.690;8.898;2023-08-06T11:51:27;14.65;78.82
69208;SHT31;70114;47.690;8.898;2023-08-06T11:53:57;14.78;78.32
69208;SHT31;70114;47.690;8.898;2023-08-06T11:56:23;15.02;77.31
69208;SHT31;70114;47.690;8.898;2023-08-06T11:58:49;15.09;78.40
69208;SHT31;70114;47.690;8.898;2023-08-06T12:01:15;14.98;77.05
69208;SHT31;70114;47.690;8.898;2023-08-06T12:03:41;14.82;77.34
69208;SHT31;70114;47.690;8.898;2023-08-06T12:06:06;14.88;76.98
69208;SHT31;70114;47.690;8.898;2023-08-06T12:08:35;14.65;77.43
69208;SHT31;70114;47.690;8.898;2023-08-06T12:11:00;14.78;77.10
69208;SHT31;70114;47.690;8.898;2023-08-06T12:13:26;14.58;76.84
69208;SHT31;70114;47.690;8.898;2023-08-06T12:15:51;14.55;76.76
69208;SHT31;70114;47.690;8.898;2023-08-06T12:18:19;14.61;77.55
69208;SHT31;70114;47.690;8.898;2023-08-06T12:20:44;14.49;77.05
69208;SHT31;70114;47.690;8.898;2023-08-06T12:23:09;14.47;77.39
69208;SHT31;70114;47.690;8.898;2023-08-06T12:25:35;14.33;77.41
69208;SHT31;70114;47.690;8.898;2023-08-06T12:28:00;14.28;77.14
69208;SHT31;70114;47.690;8.898;2023-08-06T12:30:26;14.33;77.40
69208;SHT31;70114;47.690;8.898;2023-08-06T12:32:51;14.48;77.45
69208;SHT31;70114;47.690;8.898;2023-08-06T12:35:17;14.49;77.15
69208;SHT31;70114;47.690;8.898;2023-08-06T12:37:42;14.42;77.22
69208;SHT31;70114;47.690;8.898;2023-08-06T12:40:09;14.38;77.47
69208;SHT31;70114;47.690;8.898;2023-08-06T12:42:35;14.49;78.16
69208;SHT31;70114;47.690;8.898;2023-08-06T12:45:00;14.51;77.65
69208;SHT31;70114;47.690;8.898;2023-08-06T12:47:25;14.49;76.91
69208;SHT31;70114;47.690;8.898;2023-08-06T12:49:51;14.58;76.42
69208;SHT31;70114;47.690;8.898;2023-08-06T12:52:16;14.69;77.00
69208;SHT31;70114;47.690;8.898;2023-08-06T12:54:44;14.72;76.32
69208;SHT31;70114;47.690;8.898;2023-08-06T12:57:11;14.68;76.25
69208;SHT31;70114;47.690;8.898;2023-08-06T12:59:36;14.71;75.96
69208;SHT31;70114;47.690;8.898;2023-08-06T13:02:02;14.75;75.32
69208;SHT31;70114;47.690;8.898;2023-08-06T13:04:27;14.81;75.01
69208;SHT31;70114;47.690;8.898;2023-08-06T13:06:53;14.88;75.01
69208;SHT31;70114;47.690;8.898;2023-08-06T13:09:18;14.75;73.89
69208;SHT31;70114;47.690;8.898;2023-08-06T13:11:44;14.74;74.53
69208;SHT31;70114;47.690;8.898;2023-08-06T13:14:12;14.85;74.18
69208;SHT31;70114;47.690;8.898;2023-08-06T13:16:41;14.93;73.64
69208;SHT31;70114;47.690;8.898;2023-08-06T13:19:07;15.03;73.59
69208;SHT31;70114;47.690;8.898;2023-08-06T13:24:08;15.24;73.27
69208;SHT31;70114;47.690;8.898;2023-08-06T13:26:34;15.39;72.70
69208;SHT31;70114;47.690;8.898;2023-08-06T13:29:00;15.62;70.75
69208;SHT31;70114;47.690;8.898;2023-08-06T13:31:26;15.97;69.91
69208;SHT31;70114;47.690;8.898;2023-08-06T13:33:54;16.25;68.55
69208;SHT31;70114;47.690;8.898;2023-08-06T13:36:21;16.63;67.42
69208;SHT31;70114;47.690;8.898;2023-08-06T13:38:46;16.98;66.64
69208;SHT31;70114;47.690;8.898;2023-08-06T13:41:11;17.22;65.85
69208;SHT31;70114;47.690;8.898;2023-08-06T13:43:37;17.26;64.92
69208;SHT31;70114;47.690;8.898;2023-08-06T13:46:02;17.22;64.57
69208;SHT31;70114;47.690;8.898;2023-08-06T13:48:28;17.32;64.54
69208;SHT31;70114;47.690;8.898;2023-08-06T13:50:53;16.84;65.29
69208;SHT31;70114;47.690;8.898;2023-08-06T13:53:19;16.66;66.63
69208;SHT31;70114;47.690;8.898;2023-08-06T13:55:44;16.46;66.62
69208;SHT31;70114;47.690;8.898;2023-08-06T13:58:09;16.61;67.51
69208;SHT31;70114;47.690;8.898;2023-08-06T14:00:36;16.47;67.19
69208;SHT31;70114;47.690;8.898;2023-08-06T14:03:01;16.56;67.73
69208;SHT31;70114;47.690;8.898;2023-08-06T14:05:27;16.53;67.70
69208;SHT31;70114;47.690;8.898;2023-08-06T14:07:52;16.23;67.36
69208;SHT31;70114;47.690;8.898;2023-08-06T14:10:17;15.98;68.38
69208;SHT31;70114;47.690;8.898;2023-08-06T14:12:43;15.98;68.82
69208;SHT31;70114;47.690;8.898;2023-08-06T14:15:10;15.95;68.68
69208;SHT31;70114;47.690;8.898;2023-08-06T14:17:36;16.05;68.60
69208;SHT31;70114;47.690;8.898;2023-08-06T14:20:02;15.89;69.03
69208;SHT31;70114;47.690;8.898;2023-08-06T14:22:30;15.65;69.75
69208;SHT31;70114;47.690;8.898;2023-08-06T14:24:57;15.60;69.86
69208;SHT31;70114;47.690;8.898;2023-08-06T14:27:22;15.75;70.32
69208;SHT31;70114;47.690;8.898;2023-08-06T14:29:48;15.85;70.92
69208;SHT31;70114;47.690;8.898;2023-08-06T14:32:13;17.01;67.03
69208;SHT31;70114;47.690;8.898;2023-08-06T14:34:40;17.76;65.52
69208;SHT31;70114;47.690;8.898;2023-08-06T14:37:05;18.29;62.45
69208;SHT31;70114;47.690;8.898;2023-08-06T14:39:30;18.27;61.43
69208;SHT31;70114;47.690;8.898;2023-08-06T14:41:56;18.48;61.38
69208;SHT31;70114;47.690;8.898;2023-08-06T14:44:21;18.02;62.57
69208;SHT31;70114;47.690;8.898;2023-08-06T14:46:47;17.69;64.01
69208;SHT31;70114;47.690;8.898;2023-08-06T14:49:12;17.16;63.71
69208;SHT31;70114;47.690;8.898;2023-08-06T14:51:37;17.19;63.80
69208;SHT31;70114;47.690;8.898;2023-08-06T14:54:04;17.15;64.27
69208;SHT31;70114;47.690;8.898;2023-08-06T14:56:29;16.89;64.32
69208;SHT31;70114;47.690;8.898;2023-08-06T14:58:55;17.12;63.41
69208;SHT31;70114;47.690;8.898;2023-08-06T15:01:20;16.96;63.82
69208;SHT31;70114;47.690;8.898;2023-08-06T15:03:45;17.11;63.17
69208;SHT31;70114;47.690;8.898;2023-08-06T15:06:11;18.27;61.11
69208;SHT31;70114;47.690;8.898;2023-08-06T15:08:36;17.90;60.71
69208;SHT31;70114;47.690;8.898;2023-08-06T15:11:02;17.87;61.47
69208;SHT31;70114;47.690;8.898;2023-08-06T15:13:28;18.56;60.06
69208;SHT31;70114;47.690;8.898;2023-08-06T15:15:54;18.49;59.79
69208;SHT31;70114;47.690;8.898;2023-08-06T15:18:19;18.05;60.56
69208;SHT31;70114;47.690;8.898;2023-08-06T15:20:45;17.70;61.50
69208;SHT31;70114;47.690;8.898;2023-08-06T15:23:10;17.29;63.03
69208;SHT31;70114;47.690;8.898;2023-08-06T15:25:36;16.89;63.62
69208;SHT31;70114;47.690;8.898;2023-08-06T15:28:01;16.85;64.06
69208;SHT31;70114;47.690;8.898;2023-08-06T15:30:26;16.84;64.46
69208;SHT31;70114;47.690;8.898;2023-08-06T15:32:52;16.64;65.15
69208;SHT31;70114;47.690;8.898;2023-08-06T15:35:17;16.30;65.04
69208;SHT31;70114;47.690;8.898;2023-08-06T15:37:43;16.20;65.12
69208;SHT31;70114;47.690;8.898;2023-08-06T15:40:09;16.30;65.19
69208;SHT31;70114;47.690;8.898;2023-08-06T15:42:34;16.27;64.96
69208;SHT31;70114;47.690;8.898;2023-08-06T15:45:01;16.15;64.34
69208;SHT31;70114;47.690;8.898;2023-08-06T15:47:28;16.12;64.25
69208;SHT31;70114;47.690;8.898;2023-08-06T15:49:53;15.88;63.72
69208;SHT31;70114;47.690;8.898;2023-08-06T15:52:19;15.75;66.39
69208;SHT31;70114;47.690;8.898;2023-08-06T15:54:45;15.64;67.67
69208;SHT31;70114;47.690;8.898;2023-08-06T15:57:51;15.74;68.89
69208;SHT31;70114;47.690;8.898;2023-08-06T16:01:09;15.62;68.07
69208;SHT31;70114;47.690;8.898;2023-08-06T16:07:28;15.67;67.98
69208;SHT31;70114;47.690;8.898;2023-08-06T16:10:05;15.62;66.38
69208;SHT31;70114;47.690;8.898;2023-08-06T16:13:03;15.44;66.25